Time;durP1;ratioP1;P1;durP2;ratioP2;P2;SDS_P1;SDS_P2;PMS_P1;PMS_P2;Temp;Humidity;BMP_temperature;BMP_pressure;BME280_temperature;BME280_humidity;BME280_pressure;Samples;Min_cycle;Max_cycle;Signal;HPM_P1;HPM_P2
2022/07/07 00:00:53;;;;;;;5.35;4.78;;;;;;;18.68;55.92;93884.09;5030422;28;20468;-79
2022/07/07 00:03:19;;;;;;;4.88;4.35;;;;;;;18.45;56.52;93878.75;5031191;28;20076;-80
2022/07/07 00:05:44;;;;;;;5.07;4.57;;;;;;;18.59;56.44;93902.41;5028740;28;20114;-79
2022/07/07 00:08:09;;;;;;;5.85;4.75;;;;;;;18.06;56.93;93840.41;5029309;28;20046;-80
2022/07/07 00:10:35;;;;;;;4.80;4.30;;;;;;;18.18;57.21;93869.84;5024902;28;20865;-80
2022/07/07 00:13:02;;;;;;;6.68;4.90;;;;;;;17.99;57.79;93889.50;5016083;28;20041;-80
2022/07/07 00:15:27;;;;;;;5.30;4.07;;;;;;;17.69;58.23;93885.88;5015742;28;20040;-79
2022/07/07 00:17:53;;;;;;;4.75;4.10;;;;;;;17.57;59.60;93916.38;5021196;28;20030;-79
2022/07/07 00:20:18;;;;;;;6.18;4.30;;;;;;;17.50;59.60;93905.44;5019612;28;20641;-79
2022/07/07 00:22:44;;;;;;;5.95;4.25;;;;;;;17.27;60.23;93893.06;5010678;28;20026;-79
2022/07/07 00:25:09;;;;;;;6.63;4.38;;;;;;;17.17;60.14;93892.50;5014333;28;20080;-79
2022/07/07 00:27:35;;;;;;;5.10;4.60;;;;;;;17.27;60.70;93909.19;5009342;28;20057;-79
2022/07/07 00:30:00;;;;;;;4.55;4.15;;;;;;;17.30;60.48;93911.19;5014450;28;20121;-79
2022/07/07 00:32:25;;;;;;;4.60;4.18;;;;;;;17.17;60.02;93903.25;5013406;28;20451;-79
2022/07/07 00:34:51;;;;;;;5.63;3.70;;;;;;;17.24;59.50;93901.84;5014358;28;20025;-78
2022/07/07 00:37:16;;;;;;;5.57;4.32;;;;;;;17.44;59.37;93900.72;5013789;28;20816;-79
2022/07/07 00:39:42;;;;;;;5.60;3.72;;;;;;;17.12;58.96;93873.94;5012737;28;20045;-79
2022/07/07 00:42:13;;;;;;;4.32;3.92;;;;;;;17.14;59.32;93882.47;5013001;28;20041;-79
2022/07/07 00:44:38;;;;;;;4.38;3.60;;;;;;;17.33;59.02;93915.84;5016583;28;20040;-78
2022/07/07 00:47:05;;;;;;;4.38;3.85;;;;;;;17.18;59.12;93875.25;5008831;28;20033;-79
2022/07/07 00:49:32;;;;;;;4.22;3.13;;;;;;;17.41;58.52;93901.41;5012002;28;20022;-79
2022/07/07 00:51:58;;;;;;;4.28;3.35;;;;;;;17.37;58.25;93900.56;5010419;28;20054;-79
2022/07/07 00:54:24;;;;;;;3.28;2.97;;;;;;;17.42;57.59;93884.94;5011734;28;20671;-79
2022/07/07 00:56:50;;;;;;;3.95;3.17;;;;;;;17.53;57.34;93898.59;5012091;28;20132;-79
2022/07/07 00:59:15;;;;;;;4.32;3.20;;;;;;;17.76;56.85;93912.88;5010834;28;20041;-79
2022/07/07 01:01:42;;;;;;;3.70;2.90;;;;;;;17.61;57.25;93917.22;5009150;28;20430;-81
2022/07/07 01:04:11;;;;;;;3.75;3.30;;;;;;;17.45;56.85;93900.34;5008910;28;20029;-82
2022/07/07 01:06:38;;;;;;;4.38;3.10;;;;;;;17.60;56.64;93890.66;5006128;28;20121;-82
2022/07/07 01:09:04;;;;;;;4.00;3.25;;;;;;;17.17;57.02;93871.00;5008314;28;20565;-79
2022/07/07 01:11:52;;;;;;;3.70;3.00;;;;;;;17.46;56.53;93895.75;5009125;28;20040;-83
2022/07/07 01:14:19;;;;;;;4.55;2.88;;;;;;;17.44;56.66;93895.34;5014240;28;20569;-82
2022/07/07 01:16:45;;;;;;;3.70;3.25;;;;;;;17.53;56.61;93903.97;5008464;28;20436;-82
2022/07/07 01:19:11;;;;;;;3.67;2.83;;;;;;;17.29;56.63;93909.63;5009633;28;20079;-81
2022/07/07 01:22:00;;;;;;;3.10;2.80;;;;;;;17.57;56.51;93915.59;5009336;28;20033;-82
2022/07/07 01:24:27;;;;;;;3.58;3.08;;;;;;;17.36;56.54;93910.53;5009251;28;20049;-82
2022/07/07 01:27:19;;;;;;;3.95;2.67;;;;;;;17.54;56.03;93924.38;5010464;28;20045;-82
2022/07/07 01:29:50;;;;;;;3.22;2.70;;;;;;;17.23;56.60;93917.19;5014744;28;20462;-82
2022/07/07 01:32:17;;;;;;;3.60;2.92;;;;;;;17.25;56.49;93923.00;5009880;28;20120;-82
2022/07/07 01:34:44;;;;;;;3.05;2.75;;;;;;;17.31;56.24;93928.84;5014190;28;20033;-79
2022/07/07 01:37:09;;;;;;;3.97;3.53;;;;;;;17.18;56.18;93910.19;5025698;28;20064;-79
2022/07/07 01:39:36;;;;;;;3.33;2.72;;;;;;;17.25;55.70;93908.78;5032759;28;20038;-78
2022/07/07 01:42:03;;;;;;;2.80;2.60;;;;;;;17.36;55.54;93915.13;5026604;28;20390;-79
2022/07/07 01:44:36;;;;;;;2.50;2.30;;;;;;;17.16;55.64;93903.59;5026698;28;20555;-80
2022/07/07 01:47:01;;;;;;;2.55;2.22;;;;;;;17.35;55.11;93918.97;5026001;28;20018;-79
2022/07/07 01:49:29;;;;;;;3.15;2.70;;;;;;;17.38;55.25;93915.56;5028887;28;20063;-80
2022/07/07 01:51:54;;;;;;;2.85;2.28;;;;;;;17.40;55.08;93921.41;5027023;28;20056;-79
2022/07/07 01:54:20;;;;;;;4.68;2.47;;;;;;;17.21;54.29;93889.13;5025053;28;20038;-80
2022/07/07 01:56:46;;;;;;;2.58;2.20;;;;;;;17.14;54.74;93906.66;5031628;28;20037;-79
2022/07/07 01:59:12;;;;;;;2.88;2.30;;;;;;;17.09;54.94;93904.22;5024633;28;20115;-79
2022/07/07 02:01:38;;;;;;;4.75;2.35;;;;;;;16.62;54.89;93837.16;5028435;28;20028;-80
2022/07/07 02:04:03;;;;;;;2.22;1.85;;;;;;;17.06;55.07;93917.56;5026032;28;20030;-79
2022/07/07 02:06:29;;;;;;;2.05;1.85;;;;;;;16.87;55.23;93918.28;5033922;28;20026;-79
2022/07/07 02:08:54;;;;;;;2.00;1.80;;;;;;;16.82;54.97;93883.63;5038310;28;20044;-79
2022/07/07 02:11:20;;;;;;;2.42;1.92;;;;;;;17.14;54.90;93908.56;5036543;28;20057;-79
2022/07/07 02:13:49;;;;;;;2.13;1.83;;;;;;;17.09;54.22;93901.53;5031416;28;20037;-79
2022/07/07 02:16:16;;;;;;;2.33;1.67;;;;;;;17.12;54.45;93900.03;5029962;28;20069;-79
2022/07/07 02:18:43;;;;;;;3.85;1.80;;;;;;;16.08;54.22;93735.09;5028623;28;20420;-79
2022/07/07 02:21:10;;;;;;;2.30;2.00;;;;;;;17.17;54.05;93905.94;5028123;28;20049;-79
2022/07/07 02:23:37;;;;;;;1.65;1.50;;;;;;;16.86;53.98;93856.88;5042482;28;20022;-79
2022/07/07 02:26:03;;;;;;;2.10;1.92;;;;;;;16.93;54.25;93884.66;5026640;28;20032;-78
2022/07/07 02:28:29;;;;;;;2.65;1.98;;;;;;;17.11;54.23;93899.25;5027991;28;20025;-79
2022/07/07 02:30:55;;;;;;;3.45;1.70;;;;;;;16.94;54.46;93898.88;5027307;28;20034;-79
2022/07/07 02:33:21;;;;;;;2.10;1.90;;;;;;;16.89;54.68;93902.59;5028343;28;20497;-80
2022/07/07 02:35:48;;;;;;;2.10;1.83;;;;;;;16.83;54.65;93882.50;5025470;28;20041;-79
2022/07/07 02:38:13;;;;;;;2.33;2.10;;;;;;;16.91;54.62;93891.53;5025730;28;20022;-80
2022/07/07 02:40:39;;;;;;;1.90;1.55;;;;;;;16.86;54.49;93892.56;5027356;28;20045;-80
2022/07/07 02:43:04;;;;;;;1.75;1.63;;;;;;;16.95;54.57;93882.41;5028399;28;20037;-79
2022/07/07 02:45:30;;;;;;;2.38;1.75;;;;;;;16.86;54.99;93902.53;5025389;28;20034;-80
2022/07/07 02:47:55;;;;;;;7.82;2.33;;;;;;;16.63;54.80;93880.91;5025258;28;20506;-79
2022/07/07 02:50:21;;;;;;;1.77;1.67;;;;;;;16.78;54.56;93890.84;5024534;28;20034;-80
2022/07/07 02:52:46;;;;;;;2.17;1.95;;;;;;;16.33;54.69;93833.06;5026273;28;20037;-79
2022/07/07 02:55:11;;;;;;;1.98;1.50;;;;;;;16.83;54.41;93906.69;5029236;28;20052;-79
2022/07/07 02:57:37;;;;;;;1.83;1.63;;;;;;;16.71;54.72;93893.38;5027906;28;20474;-79
2022/07/07 03:00:04;;;;;;;2.58;1.48;;;;;;;17.01;53.92;93904.41;5028759;28;20042;-78
2022/07/07 03:02:30;;;;;;;2.63;1.90;;;;;;;17.03;54.04;93913.66;5027541;28;20089;-80
2022/07/07 03:04:55;;;;;;;3.88;1.63;;;;;;;17.03;53.57;93886.78;5043985;28;20046;-79
2022/07/07 03:07:21;;;;;;;2.13;1.77;;;;;;;17.10;53.15;93892.34;5036546;28;20064;-79
2022/07/07 03:09:46;;;;;;;2.67;1.83;;;;;;;16.80;53.54;93888.59;5031999;28;20442;-79
2022/07/07 03:12:12;;;;;;;2.00;1.63;;;;;;;16.62;53.59;93877.44;5033996;28;20101;-80
2022/07/07 03:14:37;;;;;;;1.95;1.70;;;;;;;16.67;53.97;93887.16;5027416;28;20398;-80
2022/07/07 03:17:03;;;;;;;1.83;1.60;;;;;;;16.98;53.42;93905.88;5027022;28;20394;-79
2022/07/07 03:19:29;;;;;;;2.05;1.23;;;;;;;17.15;52.93;93885.94;5027691;28;20043;-79
2022/07/07 03:21:54;;;;;;;2.40;1.77;;;;;;;17.04;52.81;93893.72;5031574;28;20041;-79
2022/07/07 03:24:20;;;;;;;3.00;1.75;;;;;;;16.86;53.24;93879.16;5032034;28;20034;-79
2022/07/07 03:26:45;;;;;;;1.60;1.50;;;;;;;16.90;53.33;93911.44;5030914;28;20068;-79
2022/07/07 03:29:10;;;;;;;2.92;1.50;;;;;;;16.78;53.51;93882.78;5029017;28;20116;-79
2022/07/07 03:31:36;;;;;;;2.08;1.60;;;;;;;17.08;53.34;93924.13;5032672;28;20017;-79
2022/07/07 03:34:01;;;;;;;2.10;1.52;;;;;;;16.95;53.60;93919.25;5029514;28;20083;-78
2022/07/07 03:36:27;;;;;;;2.47;2.08;;;;;;;16.73;53.94;93909.91;5030484;28;20034;-79
2022/07/07 03:38:52;;;;;;;1.80;1.60;;;;;;;16.76;53.74;93898.47;5029422;28;20101;-80
2022/07/07 03:41:18;;;;;;;1.65;1.52;;;;;;;16.68;53.83;93913.63;5030596;28;20519;-80
2022/07/07 03:43:43;;;;;;;2.05;1.52;;;;;;;16.87;53.87;93918.28;5027670;28;20057;-80
2022/07/07 03:46:08;;;;;;;4.72;1.40;;;;;;;16.90;53.92;93920.28;5028644;28;20064;-80
2022/07/07 03:48:34;;;;;;;1.85;1.65;;;;;;;16.95;53.62;93922.72;5029436;28;20049;-79
2022/07/07 03:51:00;;;;;;;2.55;2.00;;;;;;;17.01;53.59;93921.28;5044490;28;20094;-80
2022/07/07 03:53:25;;;;;;;2.05;1.77;;;;;;;16.85;53.59;93895.59;5028846;28;20318;-79
2022/07/07 03:55:51;;;;;;;3.40;1.52;;;;;;;17.16;53.11;93927.78;5029902;28;20028;-80
2022/07/07 03:58:16;;;;;;;2.03;1.30;;;;;;;17.00;53.20;93919.75;5028884;28;20037;-80
2022/07/07 04:00:42;;;;;;;2.30;1.50;;;;;;;17.27;53.06;93920.72;5048157;28;20030;-78
2022/07/07 04:03:08;;;;;;;5.20;1.77;;;;;;;17.36;52.42;93904.38;5041351;28;20045;-78
2022/07/07 04:05:35;;;;;;;1.55;1.27;;;;;;;17.55;52.03;93934.75;5037400;28;20038;-79
2022/07/07 04:08:00;;;;;;;2.83;1.52;;;;;;;17.63;51.89;93914.16;5032027;28;20055;-79
2022/07/07 04:10:25;;;;;;;1.27;1.17;;;;;;;17.73;51.90;93926.28;5031416;28;20108;-79
2022/07/07 04:12:51;;;;;;;2.80;1.67;;;;;;;17.54;51.43;93905.53;5030963;28;20030;-80
2022/07/07 04:15:16;;;;;;;1.85;1.48;;;;;;;17.50;51.64;93926.22;5026348;28;20099;-78
2022/07/07 04:17:42;;;;;;;1.60;1.25;;;;;;;17.58;51.16;93917.16;5014535;28;20120;-79
2022/07/07 04:20:08;;;;;;;1.70;1.25;;;;;;;17.73;51.50;93932.44;5011518;28;20120;-79
2022/07/07 04:22:33;;;;;;;1.92;1.60;;;;;;;17.44;51.10;93906.88;5014219;28;20804;-80
2022/07/07 04:24:59;;;;;;;1.55;1.33;;;;;;;17.94;50.80;93924.78;5012005;28;20084;-80
2022/07/07 04:27:24;;;;;;;2.63;1.27;;;;;;;17.81;51.00;93912.59;5013826;28;20064;-79
2022/07/07 04:29:49;;;;;;;2.20;2.00;;;;;;;17.79;50.87;93916.78;5012435;28;20048;-79
2022/07/07 04:32:15;;;;;;;1.50;1.38;;;;;;;17.85;50.57;93924.19;5011908;28;20022;-80
2022/07/07 04:34:40;;;;;;;4.20;1.42;;;;;;;17.91;50.47;93930.84;5026321;28;20464;-79
2022/07/07 04:37:07;;;;;;;2.00;1.40;;;;;;;18.10;49.95;93910.44;5012889;28;20037;-78
2022/07/07 04:39:32;;;;;;;3.38;1.30;;;;;;;17.89;50.46;93908.13;5012861;28;20588;-79
2022/07/07 04:41:57;;;;;;;2.10;1.90;;;;;;;18.08;50.06;93935.03;5012022;28;20132;-79
2022/07/07 04:44:23;;;;;;;1.80;1.70;;;;;;;17.98;50.24;93944.47;5012731;28;20037;-79
2022/07/07 04:46:48;;;;;;;1.50;1.25;;;;;;;17.91;50.18;93920.09;5012926;28;20060;-79
2022/07/07 04:49:14;;;;;;;2.25;2.05;;;;;;;17.89;50.45;93913.53;5013183;28;20398;-79
2022/07/07 04:51:39;;;;;;;2.25;1.75;;;;;;;18.02;50.70;93921.09;5010841;28;20172;-80
2022/07/07 04:54:06;;;;;;;6.25;1.83;;;;;;;18.06;50.24;93941.91;5012314;28;20601;-79
2022/07/07 04:56:31;;;;;;;2.03;1.70;;;;;;;18.18;49.72;93947.13;5017319;28;20612;-79
2022/07/07 04:58:57;;;;;;;2.88;1.60;;;;;;;18.29;49.60;93948.09;5012870;28;20841;-80
2022/07/07 05:01:22;;;;;;;2.28;1.73;;;;;;;17.92;49.91;93921.66;5029115;28;20041;-79
2022/07/07 05:03:47;;;;;;;2.00;1.40;;;;;;;17.74;50.04;93893.66;5011827;28;20118;-80
2022/07/07 05:06:13;;;;;;;2.47;1.58;;;;;;;18.11;50.27;93914.69;5011866;28;20041;-79
2022/07/07 05:08:39;;;;;;;1.73;1.63;;;;;;;18.26;49.84;93921.88;5009667;28;20048;-79
2022/07/07 05:11:05;;;;;;;4.15;1.50;;;;;;;18.32;50.17;93929.31;5013640;28;20041;-79
2022/07/07 05:13:30;;;;;;;1.85;1.70;;;;;;;18.13;50.06;93882.84;5010208;28;20033;-78
2022/07/07 05:15:56;;;;;;;4.90;2.50;;;;;;;18.55;49.83;93926.63;5011151;28;20541;-79
2022/07/07 05:18:22;;;;;;;1.80;1.60;;;;;;;18.37;49.60;93912.09;5025591;28;20509;-79
2022/07/07 05:20:47;;;;;;;1.80;1.70;;;;;;;18.34;49.01;93910.09;5012399;28;20502;-79
2022/07/07 05:23:13;;;;;;;2.05;1.75;;;;;;;18.44;48.98;93925.66;5016032;28;20025;-79
2022/07/07 05:25:38;;;;;;;1.90;1.55;;;;;;;18.41;49.84;93907.53;5011906;28;20084;-80
2022/07/07 05:28:04;;;;;;;2.08;1.77;;;;;;;18.44;49.44;93896.03;5012762;28;20045;-78
2022/07/07 05:30:29;;;;;;;1.48;1.38;;;;;;;18.66;49.41;93932.19;5007836;28;20096;-79
2022/07/07 05:32:55;;;;;;;2.70;1.65;;;;;;;18.72;49.36;93923.47;5002426;28;20568;-80
2022/07/07 05:35:20;;;;;;;3.03;1.65;;;;;;;18.93;49.06;93930.28;5007852;28;20502;-79
2022/07/07 05:37:46;;;;;;;4.18;1.70;;;;;;;18.88;48.82;93921.38;5009071;28;20029;-79
2022/07/07 05:40:12;;;;;;;2.13;1.70;;;;;;;18.83;48.37;93916.31;5009796;28;20041;-79
2022/07/07 05:42:38;;;;;;;1.73;1.60;;;;;;;18.80;48.75;93927.81;5012892;28;20180;-80
2022/07/07 05:45:04;;;;;;;1.95;1.60;;;;;;;18.84;47.92;93923.25;5011454;28;20569;-79
2022/07/07 05:47:30;;;;;;;1.98;1.38;;;;;;;18.80;48.69;93943.19;5008762;28;20042;-79
2022/07/07 05:49:56;;;;;;;2.55;1.77;;;;;;;18.37;49.46;93887.84;5011293;28;20030;-78
2022/07/07 05:52:21;;;;;;;2.33;1.90;;;;;;;18.78;49.71;93900.44;5010454;28;20041;-79
2022/07/07 05:54:46;;;;;;;1.98;1.73;;;;;;;19.04;48.62;93923.16;5008672;28;20166;-79
2022/07/07 05:57:14;;;;;;;4.05;1.88;;;;;;;19.13;49.32;93915.56;5010292;28;20041;-79
2022/07/07 05:59:40;;;;;;;2.38;1.95;;;;;;;19.28;48.62;93936.97;5011223;28;20030;-80
2022/07/07 06:02:05;;;;;;;3.22;2.20;;;;;;;19.39;48.71;93926.34;5011567;28;20036;-79
2022/07/07 06:04:31;;;;;;;2.00;1.65;;;;;;;19.58;47.57;93912.75;5010500;28;20671;-80
2022/07/07 06:06:56;;;;;;;11.43;1.95;;;;;;;19.18;48.98;93894.47;5010798;28;20120;-79
2022/07/07 06:09:23;;;;;;;1.50;1.30;;;;;;;19.07;48.50;93888.16;5005067;28;20068;-78
2022/07/07 06:11:49;;;;;;;4.63;1.60;;;;;;;19.39;47.89;93937.13;5008147;28;20033;-79
2022/07/07 06:14:14;;;;;;;2.67;1.42;;;;;;;19.20;48.39;93934.56;5011029;28;20550;-80
2022/07/07 06:16:43;;;;;;;1.95;1.75;;;;;;;19.25;48.31;93945.03;5010610;28;20025;-79
2022/07/07 06:19:09;;;;;;;2.00;1.60;;;;;;;18.77;49.83;93915.06;5009010;28;20039;-79
2022/07/07 06:21:37;;;;;;;4.75;2.08;;;;;;;18.89;49.73;93925.63;5005187;28;20518;-80
2022/07/07 06:24:03;;;;;;;5.72;1.67;;;;;;;18.85;48.63;93908.66;5012437;28;20034;-79
2022/07/07 06:26:29;;;;;;;1.70;1.60;;;;;;;19.15;48.65;93956.44;5008338;28;20034;-80
2022/07/07 06:28:54;;;;;;;2.42;1.95;;;;;;;19.17;48.43;93956.84;5022004;28;20030;-79
2022/07/07 06:31:20;;;;;;;2.38;1.90;;;;;;;19.14;48.39;93962.97;5003656;28;20080;-79
2022/07/07 06:33:46;;;;;;;4.03;1.83;;;;;;;19.17;48.98;93946.84;5021777;28;20193;-80
2022/07/07 06:36:11;;;;;;;2.83;2.05;;;;;;;19.31;48.18;93962.47;5005041;28;20834;-80
2022/07/07 06:38:37;;;;;;;3.33;1.60;;;;;;;19.16;48.71;93958.78;5003404;28;20034;-79
2022/07/07 06:41:03;;;;;;;2.30;2.10;;;;;;;19.24;49.66;93965.03;5006170;28;21200;-80
2022/07/07 06:43:28;;;;;;;3.72;2.00;;;;;;;18.92;48.88;93934.16;5013105;28;20028;-80
2022/07/07 06:45:54;;;;;;;3.15;1.92;;;;;;;19.23;49.40;93956.16;5009909;28;20112;-80
2022/07/07 06:48:20;;;;;;;3.53;2.20;;;;;;;19.12;49.18;93938.28;5008085;28;20148;-80
2022/07/07 06:50:46;;;;;;;2.38;2.10;;;;;;;19.06;49.65;93951.31;5009049;28;20069;-79
2022/07/07 06:53:12;;;;;;;4.20;2.25;;;;;;;19.13;49.79;93964.88;5007559;28;20539;-80
2022/07/07 06:55:37;;;;;;;2.38;1.80;;;;;;;19.18;49.63;93958.41;5013636;28;20029;-80
2022/07/07 06:58:03;;;;;;;2.65;2.08;;;;;;;19.35;48.78;93959.78;5014675;28;20052;-78
2022/07/07 07:00:30;;;;;;;3.42;2.05;;;;;;;18.87;49.68;93903.66;5010984;28;20516;-79
2022/07/07 07:02:56;;;;;;;2.28;1.77;;;;;;;19.10;49.28;93948.66;5012210;28;20042;-80
2022/07/07 07:05:21;;;;;;;2.17;1.98;;;;;;;19.12;49.53;93940.97;5011243;28;20033;-80
2022/07/07 07:07:47;;;;;;;2.75;1.67;;;;;;;18.86;49.05;93931.00;5011036;28;20050;-79
2022/07/07 07:10:12;;;;;;;3.00;1.90;;;;;;;18.87;49.01;93954.84;5011921;28;20144;-79
2022/07/07 07:12:38;;;;;;;5.45;1.80;;;;;;;18.80;49.91;93941.28;5025407;28;20601;-79
2022/07/07 07:15:05;;;;;;;2.70;1.98;;;;;;;18.89;48.58;93952.59;5008946;28;20076;-80
2022/07/07 07:17:31;;;;;;;3.85;1.90;;;;;;;18.93;48.52;93957.25;5010178;28;20040;-80
2022/07/07 07:19:57;;;;;;;1.98;1.70;;;;;;;18.77;49.24;93931.22;5011383;28;20616;-79
2022/07/07 07:22:22;;;;;;;2.65;2.10;;;;;;;19.17;49.42;93954.13;5018212;28;20021;-80
2022/07/07 07:24:48;;;;;;;4.65;2.20;;;;;;;19.31;49.37;93935.50;5014400;28;20229;-81
2022/07/07 07:27:13;;;;;;;7.55;2.55;;;;;;;19.36;48.29;93953.28;5014314;28;20033;-78
2022/07/07 07:29:39;;;;;;;2.17;1.83;;;;;;;19.46;49.01;93925.66;5016754;28;20096;-79
2022/07/07 07:32:05;;;;;;;2.08;1.77;;;;;;;19.58;47.99;93926.22;5021424;28;20033;-79
2022/07/07 07:34:30;;;;;;;3.15;1.90;;;;;;;19.89;48.69;93959.38;5021186;28;20021;-80
2022/07/07 07:36:56;;;;;;;2.20;1.85;;;;;;;19.49;47.08;93931.13;5018085;28;20041;-81
2022/07/07 07:39:21;;;;;;;1.60;1.50;;;;;;;19.51;47.90;93936.13;5015289;28;20033;-80
2022/07/07 07:41:46;;;;;;;2.60;1.55;;;;;;;19.48;46.78;93956.53;5020740;28;20521;-81
2022/07/07 07:44:12;;;;;;;2.05;1.85;;;;;;;19.49;47.17;93955.41;5018043;28;20747;-81
2022/07/07 07:46:37;;;;;;;1.98;1.80;;;;;;;19.53;47.72;93953.53;5021888;28;20056;-82
2022/07/07 07:49:07;;;;;;;2.63;2.10;;;;;;;19.74;48.48;93947.63;5016957;28;20468;-80
2022/07/07 07:51:33;;;;;;;2.00;1.80;;;;;;;19.98;46.41;93957.16;5018589;28;20087;-81
2022/07/07 07:53:59;;;;;;;2.95;1.75;;;;;;;19.91;47.02;93951.66;5020147;28;20061;-81
2022/07/07 07:56:25;;;;;;;2.67;1.95;;;;;;;19.24;46.78;93884.94;5023183;28;20068;-81
2022/07/07 07:58:50;;;;;;;3.50;2.03;;;;;;;19.53;46.59;93931.94;5022150;28;20032;-80
2022/07/07 08:01:16;;;;;;;4.20;1.60;;;;;;;19.78;46.30;93961.94;5025036;28;20037;-80
2022/07/07 08:03:41;;;;;;;3.03;1.92;;;;;;;19.56;47.03;93939.28;5021525;28;20252;-81
2022/07/07 08:06:07;;;;;;;4.00;1.55;;;;;;;19.57;48.23;93916.56;5013490;28;20257;-80
2022/07/07 08:08:32;;;;;;;2.97;2.38;;;;;;;20.03;46.12;93963.00;5017474;28;20152;-80
2022/07/07 08:10:58;;;;;;;2.83;1.60;;;;;;;20.13;45.90;93951.53;5016040;28;20080;-81
2022/07/07 08:13:24;;;;;;;2.08;1.88;;;;;;;20.05;47.69;93924.81;5015726;28;20397;-81
2022/07/07 08:15:50;;;;;;;3.50;1.60;;;;;;;20.24;46.34;93937.41;5017196;28;20552;-81
2022/07/07 08:18:15;;;;;;;3.83;1.40;;;;;;;20.43;46.44;93966.91;5016828;28;20037;-81
2022/07/07 08:20:41;;;;;;;1.90;1.50;;;;;;;20.03;46.03;93936.00;5015442;28;20038;-80
2022/07/07 08:23:08;;;;;;;7.43;1.77;;;;;;;20.24;46.04;93954.34;5016176;28;20453;-80
2022/07/07 08:25:33;;;;;;;2.20;1.90;;;;;;;20.38;46.34;93970.75;5019737;28;20026;-81
2022/07/07 08:28:00;;;;;;;1.90;1.70;;;;;;;20.41;45.35;93942.97;5014599;28;20033;-81
2022/07/07 08:30:25;;;;;;;1.58;1.38;;;;;;;20.21;45.07;93933.50;5015881;28;20061;-80
2022/07/07 08:32:51;;;;;;;2.83;1.88;;;;;;;20.44;46.04;93969.22;5018850;28;20037;-80
2022/07/07 08:35:17;;;;;;;3.28;1.90;;;;;;;20.53;46.23;93945.38;5015209;28;20046;-81
2022/07/07 08:37:43;;;;;;;1.88;1.63;;;;;;;20.86;45.55;93968.06;5016895;28;20064;-81
2022/07/07 08:40:09;;;;;;;1.83;1.73;;;;;;;20.76;45.69;93949.84;5010127;28;20041;-82
2022/07/07 08:42:35;;;;;;;1.80;1.70;;;;;;;20.91;46.13;93955.00;5015240;28;20076;-81
2022/07/07 08:45:01;;;;;;;2.47;1.90;;;;;;;20.47;44.27;93914.47;5012301;28;20041;-81
2022/07/07 08:47:26;;;;;;;1.50;1.40;;;;;;;21.11;44.45;93971.78;5013755;28;20037;-80
2022/07/07 08:49:52;;;;;;;1.90;1.48;;;;;;;20.67;45.42;93949.38;5017984;28;20120;-79
2022/07/07 08:52:19;;;;;;;1.60;1.38;;;;;;;20.95;44.39;93969.34;5019303;28;20049;-81
2022/07/07 08:54:46;;;;;;;2.28;1.77;;;;;;;20.89;44.42;93953.81;5015253;28;20493;-80
2022/07/07 08:57:11;;;;;;;1.73;1.63;;;;;;;20.75;44.42;93946.34;5016281;28;20045;-80
2022/07/07 08:59:37;;;;;;;2.00;1.80;;;;;;;21.26;44.54;93965.31;5013831;28;20045;-81
2022/07/07 09:02:03;;;;;;;1.88;1.67;;;;;;;21.12;45.17;93932.75;5016588;28;20034;-80
2022/07/07 09:04:29;;;;;;;1.70;1.60;;;;;;;21.11;44.67;93955.53;5017792;28;20100;-79
2022/07/07 09:07:04;;;;;;;2.47;1.60;;;;;;;21.33;46.79;93970.75;5018540;28;20481;-80
2022/07/07 09:09:35;;;;;;;2.28;1.92;;;;;;;21.28;44.58;93959.50;5015804;28;20026;-80
2022/07/07 09:12:01;;;;;;;2.42;1.80;;;;;;;21.27;44.50;93966.84;5016946;28;20352;-80
2022/07/07 09:14:36;;;;;;;1.90;1.60;;;;;;;20.99;44.28;93934.19;5015872;28;20042;-80
2022/07/07 09:17:01;;;;;;;2.97;2.17;;;;;;;21.33;44.47;93962.63;5020196;28;20033;-80
2022/07/07 09:19:27;;;;;;;1.88;1.52;;;;;;;21.15;43.73;93952.84;5014609;28;20025;-80
2022/07/07 09:21:52;;;;;;;2.10;1.90;;;;;;;21.48;44.45;93955.38;5012303;28;20049;-80
2022/07/07 09:24:19;;;;;;;2.30;2.00;;;;;;;21.54;44.40;93943.03;5016423;28;20552;-80
2022/07/07 09:26:47;;;;;;;1.58;1.48;;;;;;;21.55;44.41;93965.50;5017137;28;20044;-80
2022/07/07 09:29:18;;;;;;;2.38;1.90;;;;;;;21.64;44.34;93972.13;5023233;28;20029;-79
2022/07/07 09:31:51;;;;;;;2.03;1.83;;;;;;;21.72;43.63;93953.97;5019313;28;20080;-81
2022/07/07 09:34:18;;;;;;;2.20;2.00;;;;;;;21.99;43.66;93962.59;5022003;28;20264;-80
2022/07/07 09:39:51;;;;;;;1.80;1.70;;;;;;;21.74;42.96;93954.38;5015969;28;20571;-80
2022/07/07 09:42:26;;;;;;;3.15;1.88;;;;;;;21.53;43.32;93929.88;5002450;28;20041;-78
2022/07/07 09:44:54;;;;;;;2.03;1.65;;;;;;;21.68;43.32;93931.53;5015910;28;20045;-80
2022/07/07 09:47:21;;;;;;;2.38;1.65;;;;;;;21.62;43.40;93933.03;5017332;28;20064;-80
2022/07/07 09:50:11;;;;;;;2.03;1.70;;;;;;;21.46;44.35;93944.91;5031826;28;20898;-80
2022/07/07 09:52:39;;;;;;;1.88;1.75;;;;;;;21.22;44.17;93934.72;5019934;28;20048;-79
2022/07/07 09:55:08;;;;;;;1.50;1.40;;;;;;;21.36;44.84;93942.94;5012343;28;20056;-79
2022/07/07 09:57:34;;;;;;;2.47;1.60;;;;;;;21.65;45.50;93953.97;5010358;28;20065;-80
2022/07/07 10:00:00;;;;;;;2.17;1.98;;;;;;;21.52;43.97;93949.97;5015328;28;20038;-80
2022/07/07 10:02:29;;;;;;;2.55;2.35;;;;;;;21.46;43.56;93931.41;5012395;28;20042;-80
2022/07/07 10:04:57;;;;;;;1.92;1.73;;;;;;;21.41;44.28;93934.47;5009059;28;20025;-80
2022/07/07 10:07:26;;;;;;;3.38;2.10;;;;;;;21.36;44.34;93910.47;5010667;28;20352;-80
2022/07/07 10:09:57;;;;;;;3.55;1.55;;;;;;;21.32;44.46;93917.00;5016175;28;20037;-80
2022/07/07 10:12:27;;;;;;;4.30;1.92;;;;;;;21.52;44.19;93945.34;5025471;28;20506;-80
2022/07/07 10:15:01;;;;;;;2.40;1.73;;;;;;;21.65;44.08;93938.50;5027506;28;20416;-80
2022/07/07 10:17:27;;;;;;;2.17;1.98;;;;;;;21.63;43.99;93899.41;5013726;28;20045;-79
2022/07/07 10:19:52;;;;;;;2.40;1.90;;;;;;;21.79;42.95;93921.53;5014274;28;20045;-80
2022/07/07 10:22:21;;;;;;;4.47;2.30;;;;;;;21.67;43.70;93919.16;5011945;28;20030;-80
2022/07/07 10:24:51;;;;;;;6.05;2.03;;;;;;;21.71;43.50;93926.13;5012894;28;20033;-79
2022/07/07 10:27:22;;;;;;;1.70;1.60;;;;;;;21.66;43.82;93914.88;5017889;28;20049;-80
2022/07/07 10:29:52;;;;;;;2.20;1.95;;;;;;;21.72;43.74;93899.84;5016811;28;20533;-80
2022/07/07 10:32:29;;;;;;;1.92;1.73;;;;;;;22.07;42.56;93926.25;5017942;28;20057;-79
2022/07/07 10:34:57;;;;;;;2.03;1.80;;;;;;;22.13;43.53;93914.69;5019993;28;20554;-80
2022/07/07 10:37:26;;;;;;;2.05;1.85;;;;;;;22.20;42.26;93920.09;5023105;28;20041;-79
2022/07/07 10:39:54;;;;;;;1.90;1.67;;;;;;;22.23;42.95;93913.97;5016213;28;20034;-79
2022/07/07 10:42:38;;;;;;;2.67;1.35;;;;;;;22.43;43.04;93927.16;5017699;28;20038;-80
2022/07/07 10:45:04;;;;;;;4.53;1.95;;;;;;;22.15;43.28;93900.72;5020043;28;20044;-79
2022/07/07 10:47:32;;;;;;;2.38;2.17;;;;;;;22.34;43.94;93905.81;5019973;28;20030;-81
2022/07/07 10:49:59;;;;;;;1.90;1.80;;;;;;;22.68;43.58;93911.69;5015883;28;20025;-80
2022/07/07 10:52:28;;;;;;;1.80;1.65;;;;;;;22.98;43.26;93905.88;5019376;28;20029;-80
2022/07/07 10:55:02;;;;;;;2.65;1.75;;;;;;;22.87;41.54;93889.63;5014150;28;20044;-80
2022/07/07 10:57:39;;;;;;;2.05;1.83;;;;;;;22.75;41.25;93871.00;5013184;28;20041;-81
2022/07/07 11:00:09;;;;;;;2.33;2.03;;;;;;;22.87;41.49;93914.03;5017393;28;20069;-80
2022/07/07 11:02:38;;;;;;;2.38;1.95;;;;;;;22.88;42.10;93912.09;5016892;28;20521;-80
2022/07/07 11:05:28;;;;;;;1.58;1.48;;;;;;;23.04;42.34;93907.03;5014012;28;20504;-84
2022/07/07 11:07:56;;;;;;;1.98;1.85;;;;;;;23.13;41.30;93904.69;5008529;28;20045;-82
2022/07/07 11:10:40;;;;;;;1.75;1.65;;;;;;;22.99;42.93;93910.91;5013635;28;20626;-83
2022/07/07 11:13:30;;;;;;;2.53;1.80;;;;;;;22.55;41.82;93881.47;5010318;28;20523;-83
2022/07/07 11:16:21;;;;;;;1.52;1.42;;;;;;;22.73;42.77;93903.16;5008529;28;20076;-83
2022/07/07 11:18:57;;;;;;;2.45;2.22;;;;;;;22.40;42.49;93862.88;5006192;28;20073;-82
2022/07/07 11:21:55;;;;;;;2.17;1.70;;;;;;;22.64;43.21;93871.00;5005602;28;20352;-83
2022/07/07 11:24:23;;;;;;;2.45;2.05;;;;;;;22.50;42.59;93859.38;5002414;28;20069;-83
2022/07/07 11:27:01;;;;;;;2.00;1.70;;;;;;;22.69;43.31;93872.53;5005970;28;20151;-83
2022/07/07 11:29:27;;;;;;;4.28;2.00;;;;;;;22.84;42.73;93876.78;5005829;28;20041;-81
2022/07/07 11:32:07;;;;;;;1.80;1.70;;;;;;;22.74;42.75;93829.56;5006908;28;20163;-83
2022/07/07 11:34:48;;;;;;;2.10;1.77;;;;;;;22.80;42.59;93859.75;5009373;28;20598;-81
2022/07/07 11:37:27;;;;;;;2.22;1.75;;;;;;;22.75;41.84;93876.41;5007829;28;20040;-84